createdAt,value
2023-07-18T00:01:15.741Z,99769.15
2023-07-18T00:06:26.369Z,99776.83
2023-07-18T00:11:32.599Z,99786.71
2023-07-18T00:16:38.873Z,99806.29
2023-07-18T00:21:45.149Z,99820.37
2023-07-18T00:26:50.623Z,99821.34
2023-07-18T00:31:56.253Z,99824.00
2023-07-18T00:37:03.469Z,99826.09
2023-07-18T00:42:10.346Z,99826.42
2023-07-18T00:47:17.063Z,99824.55
2023-07-18T00:52:23.635Z,99797.23
2023-07-18T00:57:30.103Z,99753.12
2023-07-18T01:02:36.202Z,99718.55
2023-07-18T01:07:44.474Z,99670.71
2023-07-18T01:12:50.388Z,99679.77
2023-07-18T01:17:56.674Z,99712.11
2023-07-18T01:23:05.660Z,99744.40
2023-07-18T01:28:13.840Z,99744.33
2023-07-18T01:33:19.935Z,99735.55
2023-07-18T01:38:31.241Z,99726.95
2023-07-18T01:43:37.670Z,99744.33
2023-07-18T01:48:44.079Z,99756.29
2023-07-18T01:53:51.081Z,99742.80
2023-07-18T01:58:57.871Z,99719.61
2023-07-18T02:04:07.164Z,99733.44
2023-07-18T02:09:14.286Z,99744.65
2023-07-18T02:14:21.725Z,99738.73
2023-07-18T02:19:27.260Z,99744.59
2023-07-18T02:24:32.943Z,99757.86
2023-07-18T02:29:39.572Z,99763.90
2023-07-18T02:34:46.247Z,99764.14
2023-07-18T02:39:52.807Z,99760.27
2023-07-18T02:44:59.992Z,99771.35
2023-07-18T02:50:06.727Z,99790.45
2023-07-18T02:55:13.342Z,99792.34
2023-07-18T03:00:27.594Z,99790.39
2023-07-18T03:05:34.742Z,99802.73
2023-07-18T03:10:43.515Z,99810.24
2023-07-18T03:15:49.097Z,99823.16
2023-07-18T03:20:55.567Z,99826.06
2023-07-18T03:26:02.792Z,99836.42
2023-07-18T03:31:09.485Z,99817.85
2023-07-18T03:38:33.397Z,99804.56
2023-07-18T03:44:09.983Z,99814.17
2023-07-18T03:49:16.321Z,99818.88
2023-07-18T03:54:22.844Z,99831.58
2023-07-18T03:59:29.969Z,99847.30
2023-07-18T04:04:36.332Z,99849.79
2023-07-18T04:09:42.787Z,99855.21
2023-07-18T04:14:49.811Z,99854.19
2023-07-18T04:20:00.722Z,99859.86
2023-07-18T04:25:08.075Z,99863.02
2023-07-18T04:30:15.497Z,99860.39
2023-07-18T04:35:21.535Z,99864.86
2023-07-18T04:40:27.073Z,99872.73
2023-07-18T04:45:33.362Z,99873.80
2023-07-18T04:50:40.144Z,99868.88
2023-07-18T04:55:47.137Z,99875.85
2023-07-18T05:00:55.786Z,99878.40
2023-07-18T05:06:02.215Z,99873.90
2023-07-18T05:11:07.684Z,99868.89
2023-07-18T05:16:13.761Z,99869.20
2023-07-18T05:21:19.845Z,99879.40
2023-07-18T05:26:26.331Z,99874.13
2023-07-18T05:31:32.277Z,99868.21
2023-07-18T05:36:37.936Z,99868.80
2023-07-18T05:41:43.664Z,99875.23
2023-07-18T05:46:49.482Z,99873.04
2023-07-18T05:51:55.196Z,99877.11
2023-07-18T05:57:01.157Z,99885.27
2023-07-18T06:02:07.017Z,99881.58
2023-07-18T06:07:13.653Z,99890.14
2023-07-18T06:12:19.252Z,99888.00
2023-07-18T06:17:25.377Z,99890.88
2023-07-18T06:22:32.179Z,99895.40
2023-07-18T06:27:37.911Z,99895.77
2023-07-18T06:32:44.375Z,99903.69
2023-07-18T06:37:51.476Z,99901.55
2023-07-18T06:42:58.606Z,99903.94
2023-07-18T06:48:04.739Z,99906.77
2023-07-18T06:53:11.382Z,99909.59
2023-07-18T06:58:18.169Z,99908.42
2023-07-18T07:03:24.576Z,99913.77
2023-07-18T07:08:31.148Z,99910.77
2023-07-18T07:13:38.403Z,99912.41
2023-07-18T07:18:45.686Z,99913.27
2023-07-18T07:23:53.723Z,99914.95
2023-07-18T07:29:00.794Z,99923.27
2023-07-18T07:34:06.874Z,99929.04
2023-07-18T07:39:17.264Z,99931.36
2023-07-18T07:44:23.012Z,99930.65
2023-07-18T07:49:28.827Z,99934.92
2023-07-18T07:54:34.824Z,99936.84
2023-07-18T07:59:40.548Z,99937.04
2023-07-18T08:04:47.135Z,99942.27
2023-07-18T08:09:53.459Z,99950.58
2023-07-18T08:15:00.530Z,99947.04
2023-07-18T08:20:07.957Z,99947.05
2023-07-18T08:25:13.767Z,99951.04
2023-07-18T08:30:21.453Z,99947.02
2023-07-18T08:35:27.772Z,99942.70
2023-07-18T08:40:34.473Z,99949.66
2023-07-18T08:45:40.627Z,99950.44
2023-07-18T08:50:47.237Z,99944.19
2023-07-18T08:55:53.977Z,99939.80
2023-07-18T09:01:01.246Z,99943.66
2023-07-18T09:06:19.200Z,99940.32
2023-07-18T09:11:26.171Z,99949.63
2023-07-18T09:16:31.952Z,99953.40
2023-07-18T09:21:38.810Z,99955.23
2023-07-18T09:26:45.432Z,99960.95
2023-07-18T09:31:53.125Z,99965.39
2023-07-18T09:37:00.362Z,99963.38
2023-07-18T09:42:10.762Z,99955.49
2023-07-18T09:47:19.555Z,99957.91
2023-07-18T09:52:29.894Z,99965.77
2023-07-18T09:57:37.377Z,99965.37
2023-07-18T10:02:44.159Z,99959.46
2023-07-18T10:07:51.305Z,99946.98
2023-07-18T10:13:04.548Z,99938.50
2023-07-18T10:18:24.261Z,99937.65
2023-07-18T10:23:45.532Z,99928.85
2023-07-18T10:28:51.929Z,99931.61
2023-07-18T10:34:11.711Z,99928.44
2023-07-18T10:39:18.210Z,99924.71
2023-07-18T10:44:24.575Z,99918.11
2023-07-18T10:49:31.537Z,99906.69
2023-07-18T10:54:38.303Z,99906.12
2023-07-18T10:59:46.495Z,99899.62
2023-07-18T11:04:53.812Z,99901.27
2023-07-18T11:09:59.895Z,99896.19
2023-07-18T11:15:07.740Z,99897.77
2023-07-18T11:20:15.339Z,99895.02
2023-07-18T11:25:22.044Z,99895.36
2023-07-18T11:30:27.707Z,99887.09
2023-07-18T11:35:33.361Z,99889.10
2023-07-18T11:40:40.043Z,99891.63
2023-07-18T11:45:48.041Z,99890.75
2023-07-18T11:50:54.964Z,99888.83
2023-07-18T11:56:01.170Z,99878.18
2023-07-18T12:01:07.283Z,99874.67
2023-07-18T12:06:13.111Z,99883.81
2023-07-18T12:11:19.881Z,99877.08
2023-07-18T12:16:26.537Z,99877.65
2023-07-18T12:21:32.032Z,99876.38
2023-07-18T12:26:38.936Z,99878.77
2023-07-18T12:31:51.192Z,99871.89
2023-07-18T12:36:57.942Z,99873.62
2023-07-18T12:42:04.359Z,99881.95
2023-07-18T12:47:11.423Z,99887.45
2023-07-18T12:52:17.800Z,99881.29
2023-07-18T12:57:24.226Z,99881.73
2023-07-18T13:02:30.611Z,99870.96
2023-07-18T13:07:38.166Z,99858.02
2023-07-18T13:12:45.211Z,99858.77
2023-07-18T13:17:50.795Z,99858.64
2023-07-18T13:22:57.450Z,99860.65
2023-07-18T13:28:04.205Z,99859.16
2023-07-18T13:33:10.680Z,99865.41
2023-07-18T13:38:17.052Z,99867.94
2023-07-18T13:43:23.036Z,99872.14
2023-07-18T13:48:28.658Z,99869.44
2023-07-18T13:53:35.131Z,99902.52
2023-07-18T13:58:41.438Z,99913.06
2023-07-18T14:03:47.348Z,99912.43
2023-07-18T14:08:54.327Z,99912.94
2023-07-18T14:14:01.142Z,99909.33
2023-07-18T14:19:07.975Z,99911.75
2023-07-18T14:24:15.037Z,99903.95
2023-07-18T14:29:21.992Z,99898.63
2023-07-18T14:34:28.374Z,99891.27
2023-07-18T14:39:37.279Z,99891.72
2023-07-18T14:44:43.553Z,99883.07
2023-07-18T14:49:49.616Z,99878.79
2023-07-18T14:54:58.673Z,99872.02
2023-07-18T15:00:06.707Z,99868.42
2023-07-18T15:05:13.315Z,99862.91
2023-07-18T15:10:20.113Z,99852.02
2023-07-18T15:15:26.382Z,99845.61
2023-07-18T15:20:32.718Z,99846.45
2023-07-18T15:25:39.842Z,99851.30
2023-07-18T15:30:47.108Z,99846.32
2023-07-18T15:35:52.736Z,99846.83
2023-07-18T15:40:58.892Z,99838.81
2023-07-18T15:46:06.065Z,99838.53
2023-07-18T15:51:13.363Z,99836.98
2023-07-18T15:56:20.319Z,99838.20
2023-07-18T16:01:27.374Z,99833.68
2023-07-18T16:06:34.587Z,99836.91
2023-07-18T16:11:41.418Z,99841.58
2023-07-18T16:16:47.768Z,99837.73
2023-07-18T16:21:54.828Z,99838.39
2023-07-18T16:27:02.116Z,99840.08
2023-07-18T16:32:10.414Z,99838.09
2023-07-18T16:37:16.709Z,99836.20
2023-07-18T16:42:24.694Z,99835.41
2023-07-18T16:47:31.756Z,99841.54
2023-07-18T16:52:38.878Z,99842.29
2023-07-18T16:57:45.097Z,99844.54
2023-07-18T17:02:51.866Z,99845.80
2023-07-18T17:07:58.145Z,99846.60
2023-07-18T17:13:04.611Z,99854.04
2023-07-18T17:18:10.942Z,99847.15
2023-07-18T17:23:16.604Z,99838.14
2023-07-18T17:28:22.931Z,99825.50
2023-07-18T17:33:29.837Z,99819.94
2023-07-18T17:38:36.136Z,99813.92
2023-07-18T17:43:43.250Z,99805.71
2023-07-18T17:48:49.928Z,99800.02
2023-07-18T17:53:56.636Z,99794.79
2023-07-18T17:59:02.494Z,99787.84
2023-07-18T18:04:09.186Z,99788.59
2023-07-18T18:09:15.504Z,99782.62
2023-07-18T18:14:21.718Z,99785.52
2023-07-18T18:19:28.046Z,99787.61
2023-07-18T18:24:33.885Z,99787.39
2023-07-18T18:29:40.392Z,99786.46
2023-07-18T18:35:00.967Z,99782.62
2023-07-18T18:40:13.309Z,99777.48
2023-07-18T18:45:19.254Z,99774.81
2023-07-18T18:50:25.013Z,99776.51
2023-07-18T18:55:33.769Z,99778.19
2023-07-18T19:00:40.641Z,99784.08
2023-07-18T19:05:46.535Z,99786.60
2023-07-18T19:11:05.166Z,99783.98
2023-07-18T19:16:21.628Z,99778.98
2023-07-18T19:21:35.565Z,99774.78
2023-07-18T19:26:41.254Z,99769.52
2023-07-18T19:31:47.234Z,99778.42
2023-07-18T19:36:53.881Z,99780.48
2023-07-18T19:41:59.742Z,99776.84
2023-07-18T19:47:05.901Z,99783.36
2023-07-18T19:52:12.279Z,99776.04
2023-07-18T19:57:18.037Z,99773.83
2023-07-18T20:02:23.900Z,99770.95
2023-07-18T20:07:30.193Z,99764.83
2023-07-18T20:12:35.952Z,99768.59
2023-07-18T20:17:42.203Z,99777.38
2023-07-18T20:22:47.961Z,99769.72
2023-07-18T20:27:54.290Z,99772.63
2023-07-18T20:33:03.524Z,99776.39
2023-07-18T20:38:10.509Z,99769.73
2023-07-18T20:43:16.679Z,99770.86
2023-07-18T20:48:22.226Z,99767.81
2023-07-18T20:53:29.009Z,99773.23
2023-07-18T20:58:34.754Z,99769.04
2023-07-18T21:03:40.503Z,99764.41
2023-07-18T21:08:47.511Z,99768.29
2023-07-18T21:13:53.137Z,99767.48
2023-07-18T21:18:58.744Z,99767.98
2023-07-18T21:24:04.943Z,99776.17
2023-07-18T21:29:10.583Z,99776.06
2023-07-18T21:34:16.140Z,99772.01
2023-07-18T21:39:22.115Z,99762.87
2023-07-18T21:44:27.926Z,99760.63
2023-07-18T21:49:33.574Z,99758.02
2023-07-18T21:54:39.354Z,99762.94
2023-07-18T21:59:45.357Z,99765.20
2023-07-18T22:04:51.156Z,99767.50
2023-07-18T22:09:57.525Z,99765.98
2023-07-18T22:15:03.524Z,99767.89
2023-07-18T22:20:10.211Z,99763.99
2023-07-18T22:25:15.779Z,99762.58
2023-07-18T22:30:21.350Z,99758.98
2023-07-18T22:35:26.862Z,99758.83
2023-07-18T22:40:32.735Z,99757.48
2023-07-18T22:45:38.373Z,99751.18
2023-07-18T22:50:43.805Z,99747.88
2023-07-18T22:55:50.531Z,99742.63
2023-07-18T23:00:56.383Z,99741.75
2023-07-18T23:06:02.274Z,99744.89
2023-07-18T23:11:07.657Z,99740.83
2023-07-18T23:16:13.400Z,99739.80
2023-07-18T23:21:19.554Z,99733.73
2023-07-18T23:26:25.615Z,99733.95
2023-07-18T23:31:31.220Z,99730.11
2023-07-18T23:36:36.901Z,99730.35
2023-07-18T23:41:42.893Z,99720.34
2023-07-18T23:46:48.657Z,99719.45
2023-07-18T23:51:54.577Z,99715.31
2023-07-18T23:57:00.380Z,99712.38
